createdAt,value
2022-12-13T00:00:25.375Z,94814
2022-12-13T00:01:33.054Z,94805
2022-12-13T00:02:42.736Z,94805
2022-12-13T00:03:51.544Z,94809
2022-12-13T00:05:00.160Z,94807
2022-12-13T00:06:09.851Z,94806
2022-12-13T00:07:18.525Z,94800
2022-12-13T00:08:26.241Z,94801
2022-12-13T00:09:35.908Z,94801
2022-12-13T00:10:44.573Z,94796
2022-12-13T00:11:53.263Z,94795
2022-12-13T00:13:02.973Z,94803
2022-12-13T00:14:11.695Z,94795
2022-12-13T00:15:21.343Z,94799
2022-12-13T00:16:30.126Z,94804
2022-12-13T00:17:38.735Z,94797
2022-12-13T00:18:48.462Z,94801
2022-12-13T00:19:56.146Z,94795
2022-12-13T00:21:03.820Z,94791
2022-12-13T00:22:12.488Z,94791
2022-12-13T00:23:21.208Z,94795
2022-12-13T00:24:30.956Z,94798
2022-12-13T00:25:40.620Z,94792
2022-12-13T00:26:49.281Z,94795
2022-12-13T00:27:59.014Z,94794
2022-12-13T00:29:07.714Z,94792
2022-12-13T00:30:16.357Z,94791
2022-12-13T00:32:36.731Z,94788
2022-12-13T00:33:46.428Z,94790
2022-12-13T00:34:55.079Z,94791
2022-12-13T00:36:03.773Z,94793
2022-12-13T00:37:13.469Z,94791
2022-12-13T00:38:22.157Z,94793
2022-12-13T00:39:30.831Z,94789
2022-12-13T00:40:40.517Z,94791
2022-12-13T00:41:50.193Z,94789
2022-12-13T00:42:59.965Z,94792
2022-12-13T00:44:09.648Z,94798
2022-12-13T00:45:19.399Z,94787
2022-12-13T00:46:29.267Z,94788
2022-12-13T00:47:36.750Z,94789
2022-12-13T00:48:46.435Z,94786
2022-12-13T00:49:55.152Z,94786
2022-12-13T00:51:03.834Z,94783
2022-12-13T00:52:13.508Z,94787
2022-12-13T00:53:21.190Z,94789
2022-12-13T00:54:29.844Z,94788
2022-12-13T00:55:39.552Z,94784
2022-12-13T00:56:47.243Z,94780
2022-12-13T00:57:55.950Z,94783
2022-12-13T00:59:04.639Z,94782
2022-12-13T01:00:14.331Z,94784
2022-12-13T01:01:24.063Z,94778
2022-12-13T01:02:32.717Z,94782
2022-12-13T01:03:41.406Z,94788
2022-12-13T01:04:51.063Z,94787
2022-12-13T01:06:16.092Z,94782
2022-12-13T01:07:10.430Z,94787
2022-12-13T01:08:20.152Z,94783
2022-12-13T01:09:28.778Z,94783
2022-12-13T01:10:38.469Z,94781
2022-12-13T01:11:46.143Z,94781
2022-12-13T01:12:55.874Z,94782
2022-12-13T01:14:05.550Z,94780
2022-12-13T01:15:14.558Z,94778
2022-12-13T01:16:24.036Z,94776
2022-12-13T01:17:33.605Z,94776
2022-12-13T01:18:42.314Z,94778
2022-12-13T01:19:51.970Z,94778
2022-12-13T01:21:00.650Z,94775
2022-12-13T01:22:10.333Z,94770
2022-12-13T01:23:20.008Z,94771
2022-12-13T01:24:28.698Z,94771
2022-12-13T01:25:37.378Z,94770
2022-12-13T01:26:46.089Z,94766
2022-12-13T01:27:55.823Z,94768
2022-12-13T01:29:06.497Z,94760
2022-12-13T01:30:14.271Z,94761
2022-12-13T01:31:22.049Z,94766
2022-12-13T01:32:31.701Z,94764
2022-12-13T01:33:40.374Z,94757
2022-12-13T01:34:49.072Z,94760
2022-12-13T01:35:58.760Z,94759
2022-12-13T01:37:07.455Z,94757
2022-12-13T01:38:17.110Z,94759
2022-12-13T01:39:27.797Z,94765
2022-12-13T01:40:38.720Z,94759
2022-12-13T01:41:48.194Z,94754
2022-12-13T01:42:56.868Z,94751
2022-12-13T01:44:07.570Z,94749
2022-12-13T01:45:17.546Z,94757
2022-12-13T01:46:26.028Z,94751
2022-12-13T01:47:34.758Z,94761
2022-12-13T01:48:43.428Z,94747
2022-12-13T01:49:53.179Z,94747
2022-12-13T01:51:01.844Z,94746
2022-12-13T01:52:10.581Z,94742
2022-12-13T01:53:20.289Z,94736
2022-12-13T01:54:33.936Z,94736
2022-12-13T01:55:41.896Z,94737
2022-12-13T01:56:48.282Z,94736
2022-12-13T01:57:57.946Z,94734
2022-12-13T01:59:07.688Z,94728
2022-12-13T02:00:15.364Z,94728
2022-12-13T02:01:24.263Z,94726
2022-12-13T02:02:33.893Z,94731
2022-12-13T02:03:42.727Z,94724
2022-12-13T02:04:50.365Z,94725
2022-12-13T02:06:00.469Z,94729
2022-12-13T02:07:08.664Z,94730
2022-12-13T02:08:19.368Z,94731
2022-12-13T02:09:29.018Z,94731
2022-12-13T02:10:37.705Z,94732
2022-12-13T02:11:47.373Z,94730
2022-12-13T02:12:55.040Z,94726
2022-12-13T02:14:03.851Z,94727
2022-12-13T02:15:12.664Z,94720
2022-12-13T02:16:21.947Z,94725
2022-12-13T02:17:30.861Z,94713
2022-12-13T02:18:40.541Z,94719
2022-12-13T02:19:50.211Z,94718
2022-12-13T02:20:59.876Z,94715
2022-12-13T02:22:07.559Z,94718
2022-12-13T02:23:17.233Z,94712
2022-12-13T02:24:26.884Z,94706
2022-12-13T02:25:35.584Z,94705
2022-12-13T02:26:45.318Z,94708
2022-12-13T02:27:53.122Z,94703
2022-12-13T02:29:02.737Z,94703
2022-12-13T02:30:12.384Z,94701
2022-12-13T02:31:20.114Z,94697
2022-12-13T02:32:28.799Z,94693
2022-12-13T02:33:37.517Z,94694
2022-12-13T02:34:46.244Z,94694
2022-12-13T02:35:55.963Z,94690
2022-12-13T02:37:04.676Z,94686
2022-12-13T02:38:13.285Z,94692
2022-12-13T02:39:30.029Z,94687
2022-12-13T02:40:33.606Z,94684
2022-12-13T02:41:43.304Z,94685
2022-12-13T02:42:52.023Z,94690
2022-12-13T02:44:00.913Z,94691
2022-12-13T02:45:14.519Z,94691
2022-12-13T02:46:22.056Z,94688
2022-12-13T02:47:30.659Z,94682
2022-12-13T02:48:40.341Z,94684
2022-12-13T02:49:49.037Z,94680
2022-12-13T02:50:58.750Z,94683
2022-12-13T02:52:07.437Z,94677
2022-12-13T02:53:18.095Z,94678
2022-12-13T02:54:27.762Z,94675
2022-12-13T02:55:35.427Z,94670
2022-12-13T02:56:44.128Z,94669
2022-12-13T02:57:53.806Z,94667
2022-12-13T02:59:02.497Z,94666
2022-12-13T03:00:12.185Z,94666
2022-12-13T03:01:28.284Z,94665
2022-12-13T03:02:32.052Z,94657
2022-12-13T03:03:41.212Z,94655
2022-12-13T03:04:49.892Z,94657
2022-12-13T03:05:59.568Z,94653
2022-12-13T03:07:09.264Z,94656
2022-12-13T03:08:17.954Z,94657
2022-12-13T03:09:26.578Z,94655
2022-12-13T03:10:35.286Z,94658
2022-12-13T03:11:44.064Z,94659
2022-12-13T03:12:53.738Z,94654
2022-12-13T03:14:02.447Z,94655
2022-12-13T03:15:11.112Z,94655
2022-12-13T03:16:22.651Z,94655
2022-12-13T03:17:28.446Z,94660
2022-12-13T03:18:37.120Z,94657
2022-12-13T03:19:45.831Z,94656
2022-12-13T03:20:54.502Z,94657
2022-12-13T03:22:04.176Z,94658
2022-12-13T03:23:12.885Z,94659
2022-12-13T03:24:22.537Z,94652
2022-12-13T03:25:32.886Z,94656
2022-12-13T03:26:40.905Z,94660
2022-12-13T03:27:50.569Z,94652
2022-12-13T03:29:01.246Z,94656
2022-12-13T03:30:09.904Z,94660
2022-12-13T03:31:19.667Z,94663
2022-12-13T03:32:28.282Z,94659
2022-12-13T03:33:37.018Z,94665
2022-12-13T03:34:46.804Z,94660
2022-12-13T03:35:54.341Z,94661
2022-12-13T03:37:04.049Z,94662
2022-12-13T03:38:11.772Z,94661
2022-12-13T03:39:21.533Z,94654
2022-12-13T03:40:31.190Z,94659
2022-12-13T03:41:39.880Z,94659
2022-12-13T03:42:49.599Z,94657
2022-12-13T03:43:58.268Z,94655
2022-12-13T03:45:06.977Z,94653
2022-12-13T03:46:16.773Z,94656
2022-12-13T03:47:25.406Z,94653
2022-12-13T03:48:34.099Z,94651
2022-12-13T03:49:42.767Z,94648
2022-12-13T03:50:53.501Z,94645
2022-12-13T03:52:02.181Z,94647
2022-12-13T03:53:09.860Z,94644
2022-12-13T03:54:20.541Z,94641
2022-12-13T03:55:30.275Z,94637
2022-12-13T03:56:38.968Z,94635
2022-12-13T03:57:48.672Z,94632
2022-12-13T03:58:58.383Z,94635
2022-12-13T04:00:07.115Z,94631
2022-12-13T04:01:16.846Z,94636
2022-12-13T04:02:30.473Z,94636
2022-12-13T04:03:35.202Z,94637
2022-12-13T04:04:44.900Z,94638
2022-12-13T04:05:53.592Z,94630
2022-12-13T04:07:03.305Z,94630
2022-12-13T04:08:21.709Z,94631
2022-12-13T04:09:22.649Z,94631
2022-12-13T04:10:32.379Z,94629
2022-12-13T04:11:42.306Z,94628
2022-12-13T04:12:50.754Z,94632
2022-12-13T04:14:01.530Z,94633
2022-12-13T04:15:10.218Z,94629
2022-12-13T04:16:18.967Z,94627
2022-12-13T04:17:28.687Z,94630
2022-12-13T04:18:37.391Z,94630
2022-12-13T04:19:47.118Z,94626
2022-12-13T04:20:56.819Z,94629
2022-12-13T04:22:05.534Z,94629
2022-12-13T04:23:15.286Z,94632
2022-12-13T04:24:31.121Z,94624
2022-12-13T04:25:33.747Z,94632
2022-12-13T04:26:43.474Z,94625
2022-12-13T04:27:53.207Z,94630
2022-12-13T04:29:02.941Z,94632
2022-12-13T04:30:10.705Z,94633
2022-12-13T04:31:19.443Z,94630
2022-12-13T04:32:29.088Z,94633
2022-12-13T04:33:37.774Z,94631
2022-12-13T04:34:47.594Z,94626
2022-12-13T04:35:58.323Z,94625
2022-12-13T04:37:07.999Z,94624
2022-12-13T04:38:17.695Z,94628
2022-12-13T04:39:26.401Z,94623
2022-12-13T04:40:36.075Z,94627
2022-12-13T04:41:45.808Z,94625
2022-12-13T04:42:53.924Z,94628
2022-12-13T04:44:03.235Z,94623
2022-12-13T04:45:13.371Z,94626
2022-12-13T04:46:22.902Z,94626
2022-12-13T04:47:32.669Z,94623
2022-12-13T04:48:41.461Z,94629
2022-12-13T04:49:51.257Z,94623
2022-12-13T04:51:01.545Z,94620
2022-12-13T04:52:10.781Z,94625
2022-12-13T04:53:20.612Z,94623
2022-12-13T04:54:35.799Z,94624
2022-12-13T04:55:39.134Z,94617
2022-12-13T04:56:48.818Z,94620
2022-12-13T04:57:57.588Z,94620
2022-12-13T04:59:07.319Z,94616
2022-12-13T05:00:17.133Z,94616
2022-12-13T05:01:27.050Z,94614
2022-12-13T05:02:35.794Z,94609
2022-12-13T05:03:45.516Z,94615
2022-12-13T05:04:55.398Z,94612
2022-12-13T05:06:05.132Z,94611
2022-12-13T05:07:15.863Z,94613
2022-12-13T05:08:24.689Z,94610
2022-12-13T05:09:34.424Z,94611
2022-12-13T05:10:44.167Z,94610
2022-12-13T05:12:01.420Z,94607
2022-12-13T05:13:04.562Z,94607
2022-12-13T05:14:14.508Z,94602
2022-12-13T05:15:25.027Z,94601
2022-12-13T05:16:33.812Z,94600
2022-12-13T05:17:43.486Z,94601
2022-12-13T05:18:53.341Z,94600
2022-12-13T05:20:01.048Z,94605
2022-12-13T05:21:09.839Z,94596
2022-12-13T05:22:20.545Z,94594
2022-12-13T05:23:27.274Z,94599
2022-12-13T05:24:36.950Z,94594
2022-12-13T05:25:46.621Z,94593
2022-12-13T05:26:56.317Z,94595
2022-12-13T05:28:09.200Z,94595
2022-12-13T05:29:17.661Z,94595
2022-12-13T05:30:26.359Z,94593
2022-12-13T05:31:36.127Z,94596
2022-12-13T05:32:45.748Z,94594
2022-12-13T05:33:54.428Z,94598
2022-12-13T05:35:04.063Z,94594
2022-12-13T05:36:13.737Z,94591
2022-12-13T05:37:21.403Z,94600
2022-12-13T05:38:30.068Z,94599
2022-12-13T05:39:39.765Z,94596
2022-12-13T05:40:49.431Z,94599
2022-12-13T05:42:01.244Z,94598
2022-12-13T05:43:21.146Z,94599
2022-12-13T05:44:19.447Z,94598
2022-12-13T05:45:29.120Z,94598
2022-12-13T05:46:41.548Z,94597
2022-12-13T05:47:48.444Z,94596
2022-12-13T05:48:58.116Z,94598
2022-12-13T05:50:06.829Z,94594
2022-12-13T05:51:16.481Z,94593
2022-12-13T05:52:30.408Z,94599
2022-12-13T05:53:34.824Z,94598
2022-12-13T05:54:44.500Z,94599
2022-12-13T05:55:54.185Z,94599
2022-12-13T05:57:02.836Z,94594
2022-12-13T05:58:13.239Z,94599
2022-12-13T05:59:23.185Z,94596
2022-12-13T06:00:32.825Z,94599
2022-12-13T06:01:43.541Z,94601
2022-12-13T06:02:50.256Z,94602
2022-12-13T06:04:00.821Z,94595
2022-12-13T06:05:09.488Z,94600
2022-12-13T06:06:19.136Z,94593
2022-12-13T06:07:27.834Z,94591
2022-12-13T06:08:37.553Z,94590
2022-12-13T06:09:47.168Z,94587
2022-12-13T06:11:10.556Z,94591
2022-12-13T06:12:06.496Z,94585
2022-12-13T06:13:21.289Z,94585
2022-12-13T06:14:27.812Z,94589
2022-12-13T06:15:37.442Z,94586
2022-12-13T06:16:48.159Z,94591
2022-12-13T06:17:55.750Z,94593
2022-12-13T06:19:05.472Z,94589
2022-12-13T06:20:24.072Z,94596
2022-12-13T06:21:24.802Z,94593
2022-12-13T06:22:34.498Z,94596
2022-12-13T06:23:43.178Z,94600
2022-12-13T06:24:51.980Z,94590
2022-12-13T06:26:01.730Z,94589
2022-12-13T06:27:11.491Z,94592
2022-12-13T06:28:21.149Z,94600
2022-12-13T06:29:29.884Z,94599
2022-12-13T06:30:42.637Z,94596
2022-12-13T06:31:49.197Z,94600
2022-12-13T06:32:58.865Z,94599
2022-12-13T06:34:13.628Z,94601
2022-12-13T06:35:29.807Z,94601
2022-12-13T06:36:28.824Z,94602
2022-12-13T06:37:37.511Z,94605
2022-12-13T06:38:46.199Z,94610
2022-12-13T06:39:54.897Z,94604
2022-12-13T06:41:04.582Z,94606
2022-12-13T06:42:13.296Z,94603
2022-12-13T06:43:21.929Z,94616
2022-12-13T06:44:31.755Z,94611
2022-12-13T06:45:39.292Z,94615
2022-12-13T06:46:47.922Z,94609
2022-12-13T06:47:57.593Z,94608
2022-12-13T06:49:06.265Z,94608
2022-12-13T06:50:16.009Z,94605
2022-12-13T06:51:32.323Z,94610
2022-12-13T06:52:34.268Z,94605
2022-12-13T06:53:43.957Z,94611
2022-12-13T06:54:55.512Z,94612
2022-12-13T06:56:01.266Z,94608
2022-12-13T06:57:09.941Z,94605
2022-12-13T06:58:19.672Z,94607
2022-12-13T06:59:29.356Z,94606
2022-12-13T07:00:44.205Z,94613
2022-12-13T07:01:50.564Z,94614
2022-12-13T07:03:00.400Z,94611
2022-12-13T07:04:28.689Z,94615
2022-12-13T07:05:19.718Z,94617
2022-12-13T07:06:29.372Z,94620
2022-12-13T07:07:39.033Z,94621
2022-12-13T07:08:48.689Z,94621
2022-12-13T07:09:56.355Z,94622
2022-12-13T07:11:06.025Z,94628
2022-12-13T07:12:15.692Z,94631
2022-12-13T07:13:25.355Z,94629
2022-12-13T07:14:40.582Z,94625
2022-12-13T07:15:44.683Z,94628
2022-12-13T07:16:59.562Z,94625
2022-12-13T07:18:05.003Z,94622
2022-12-13T07:19:23.198Z,94620
2022-12-13T07:20:22.280Z,94617
2022-12-13T07:21:31.968Z,94622
2022-12-13T07:22:45.113Z,94620
2022-12-13T07:23:54.429Z,94621
2022-12-13T07:24:59.927Z,94620
2022-12-13T07:26:09.568Z,94624
2022-12-13T07:27:19.256Z,94621
2022-12-13T07:28:28.974Z,94622
2022-12-13T07:29:37.631Z,94622
2022-12-13T07:30:46.303Z,94624
2022-12-13T07:32:01.279Z,94622
2022-12-13T07:33:05.612Z,94629
2022-12-13T07:34:15.790Z,94624
2022-12-13T07:35:22.944Z,94628
2022-12-13T07:36:31.644Z,94632
2022-12-13T07:37:40.282Z,94631
2022-12-13T07:38:48.964Z,94631
2022-12-13T07:40:02.853Z,94629
2022-12-13T07:41:06.325Z,94631
2022-12-13T07:42:16.940Z,94624
2022-12-13T07:43:25.620Z,94634
2022-12-13T07:44:34.279Z,94628
2022-12-13T07:45:43.971Z,94625
2022-12-13T07:46:52.779Z,94634
2022-12-13T07:48:02.281Z,94627
2022-12-13T07:49:11.980Z,94633
2022-12-13T07:50:24.468Z,94628
2022-12-13T07:51:30.300Z,94628
2022-12-13T07:52:39.002Z,94634
2022-12-13T07:53:47.664Z,94629
2022-12-13T07:54:57.315Z,94630
2022-12-13T07:56:05.986Z,94635
2022-12-13T07:57:16.706Z,94633
2022-12-13T07:58:25.436Z,94635
2022-12-13T07:59:35.092Z,94636
2022-12-13T08:00:45.738Z,94632
2022-12-13T08:01:54.492Z,94635
2022-12-13T08:03:04.097Z,94642
2022-12-13T08:04:13.737Z,94646
2022-12-13T08:05:26.203Z,94639
2022-12-13T08:06:32.039Z,94642
2022-12-13T08:07:39.699Z,94636
2022-12-13T08:08:49.377Z,94641
2022-12-13T08:09:59.043Z,94641
2022-12-13T08:11:07.698Z,94639
2022-12-13T08:12:22.204Z,94640
2022-12-13T08:13:27.051Z,94637
2022-12-13T08:14:36.731Z,94639
2022-12-13T08:15:45.403Z,94637
2022-12-13T08:16:54.105Z,94642
2022-12-13T08:18:03.708Z,94639
2022-12-13T08:19:13.369Z,94634
2022-12-13T08:20:22.121Z,94631
2022-12-13T08:21:53.116Z,94626
2022-12-13T08:22:41.308Z,94632
2022-12-13T08:23:51.936Z,94626
2022-12-13T08:25:01.612Z,94633
2022-12-13T08:26:10.310Z,94627
2022-12-13T08:27:19.985Z,94631
2022-12-13T08:28:29.668Z,94630
2022-12-13T08:29:38.337Z,94620
2022-12-13T08:30:47.000Z,94625
2022-12-13T08:31:55.732Z,94627
2022-12-13T08:33:05.584Z,94631
2022-12-13T08:34:15.063Z,94629
2022-12-13T08:35:22.714Z,94633
2022-12-13T08:36:32.355Z,94630
2022-12-13T08:37:42.081Z,94631
2022-12-13T08:38:50.707Z,94628
2022-12-13T08:39:59.382Z,94630
2022-12-13T08:41:09.048Z,94628
2022-12-13T08:42:19.157Z,94632
2022-12-13T08:43:27.402Z,94640
2022-12-13T08:44:35.066Z,94639
2022-12-13T08:45:43.725Z,94642
2022-12-13T08:46:53.426Z,94645
2022-12-13T08:48:02.053Z,94644
2022-12-13T08:49:10.768Z,94638
2022-12-13T08:50:19.381Z,94638
2022-12-13T08:51:29.595Z,94641
2022-12-13T08:52:39.131Z,94644
2022-12-13T08:53:47.316Z,94641
2022-12-13T08:54:58.043Z,94644
2022-12-13T08:56:07.709Z,94646
2022-12-13T08:57:15.366Z,94645
2022-12-13T08:58:25.111Z,94644
2022-12-13T08:59:33.779Z,94638
2022-12-13T09:00:42.506Z,94649
2022-12-13T09:01:53.591Z,94660
2022-12-13T09:03:02.743Z,94654
2022-12-13T09:04:12.453Z,94652
2022-12-13T09:05:32.709Z,94652
2022-12-13T09:06:33.724Z,94653
2022-12-13T09:07:42.373Z,94652
2022-12-13T09:08:51.622Z,94657
2022-12-13T09:09:59.719Z,94654
2022-12-13T09:11:20.781Z,94654
2022-12-13T09:12:30.190Z,94659
2022-12-13T09:13:32.870Z,94657
2022-12-13T09:14:45.111Z,94651
2022-12-13T09:15:52.055Z,94653
2022-12-13T09:17:03.594Z,94652
2022-12-13T09:18:15.077Z,94653
2022-12-13T09:19:25.642Z,94646
2022-12-13T09:20:40.423Z,94651
2022-12-13T09:21:44.165Z,94643
2022-12-13T09:22:52.828Z,94648
2022-12-13T09:24:03.485Z,94649
2022-12-13T09:25:14.731Z,94646
2022-12-13T09:26:25.168Z,94646
2022-12-13T09:27:39.490Z,94640
2022-12-13T09:28:44.046Z,94642
2022-12-13T09:29:53.725Z,94643
2022-12-13T09:31:02.393Z,94646
2022-12-13T09:32:12.064Z,94645
2022-12-13T09:33:28.830Z,94648
2022-12-13T09:34:30.449Z,94649
2022-12-13T09:35:40.148Z,94647
2022-12-13T09:36:48.803Z,94645
2022-12-13T09:37:59.461Z,94646
2022-12-13T09:39:08.123Z,94646
2022-12-13T09:40:25.621Z,94643
2022-12-13T09:41:29.256Z,94644
2022-12-13T09:42:39.073Z,94639
2022-12-13T09:43:49.222Z,94639
2022-12-13T09:45:02.412Z,94640
2022-12-13T09:46:13.135Z,94637
2022-12-13T09:47:22.741Z,94629
2022-12-13T09:48:35.035Z,94636
2022-12-13T09:49:38.976Z,94632
2022-12-13T09:50:57.881Z,94625
2022-12-13T09:52:10.394Z,94625
2022-12-13T09:53:12.233Z,94626
2022-12-13T09:54:21.493Z,94630
2022-12-13T09:55:30.347Z,94629
2022-12-13T09:56:39.816Z,94626
2022-12-13T09:57:48.478Z,94625
2022-12-13T09:58:58.155Z,94627
2022-12-13T10:00:05.835Z,94627
2022-12-13T10:01:13.545Z,94627
2022-12-13T10:02:23.166Z,94622
2022-12-13T10:03:32.790Z,94630
2022-12-13T10:04:40.475Z,94625
2022-12-13T10:05:50.156Z,94624
2022-12-13T10:06:59.805Z,94622
2022-12-13T10:08:08.463Z,94621
2022-12-13T10:09:18.134Z,94621
2022-12-13T10:10:27.838Z,94620
2022-12-13T10:11:36.490Z,94620
2022-12-13T10:12:47.154Z,94618
2022-12-13T10:13:54.801Z,94622
2022-12-13T10:15:03.454Z,94618
2022-12-13T10:16:12.195Z,94618
2022-12-13T10:17:22.796Z,94619
2022-12-13T10:18:33.460Z,94624
2022-12-13T10:19:41.125Z,94619
2022-12-13T10:20:49.801Z,94620
2022-12-13T10:22:01.177Z,94620
2022-12-13T10:23:31.785Z,94613
2022-12-13T10:24:32.826Z,94607
2022-12-13T10:25:30.463Z,94609
2022-12-13T10:26:39.198Z,94609
2022-12-13T10:27:48.819Z,94611
2022-12-13T10:28:57.482Z,94613
2022-12-13T10:30:07.145Z,94609
2022-12-13T10:31:16.839Z,94614
2022-12-13T10:32:24.503Z,94613
2022-12-13T10:33:34.173Z,94611
2022-12-13T10:34:43.836Z,94605
2022-12-13T10:35:52.488Z,94606
2022-12-13T10:37:02.139Z,94604
2022-12-13T10:38:11.814Z,94606
2022-12-13T10:39:20.528Z,94599
2022-12-13T10:40:31.813Z,94602
2022-12-13T10:41:38.838Z,94594
2022-12-13T10:42:48.498Z,94593
2022-12-13T10:43:57.162Z,94597
2022-12-13T10:45:05.864Z,94592
2022-12-13T10:46:15.593Z,94587
2022-12-13T10:47:25.185Z,94592
2022-12-13T10:48:38.510Z,94589
2022-12-13T10:49:44.491Z,94594
2022-12-13T10:50:52.223Z,94594
2022-12-13T10:52:00.900Z,94591
2022-12-13T10:53:10.557Z,94586
2022-12-13T10:54:20.249Z,94588
2022-12-13T10:55:29.894Z,94592
2022-12-13T10:56:38.565Z,94587
2022-12-13T10:57:47.242Z,94586
2022-12-13T10:58:56.905Z,94588
2022-12-13T11:00:04.578Z,94589
2022-12-13T11:01:14.219Z,94587
2022-12-13T11:02:23.053Z,94586
2022-12-13T11:03:31.710Z,94583
2022-12-13T11:04:41.375Z,94581
2022-12-13T11:05:49.021Z,94582
2022-12-13T11:06:58.664Z,94585
2022-12-13T11:08:08.343Z,94585
2022-12-13T11:09:23.235Z,94580
2022-12-13T11:10:27.976Z,94580
2022-12-13T11:11:37.294Z,94582
2022-12-13T11:12:45.952Z,94579
2022-12-13T11:13:55.643Z,94579
2022-12-13T11:15:03.289Z,94578
2022-12-13T11:16:11.962Z,94577
2022-12-13T11:17:21.597Z,94579
2022-12-13T11:18:30.250Z,94573
2022-12-13T11:19:38.965Z,94578
2022-12-13T11:20:51.309Z,94576
2022-12-13T11:21:57.248Z,94581
2022-12-13T11:23:06.909Z,94582
2022-12-13T11:24:16.591Z,94580
2022-12-13T11:25:25.243Z,94577
2022-12-13T11:26:34.970Z,94580
2022-12-13T11:27:43.562Z,94574
2022-12-13T11:28:53.228Z,94567
2022-12-13T11:30:01.916Z,94568
2022-12-13T11:31:10.636Z,94563
2022-12-13T11:32:22.630Z,94565
2022-12-13T11:33:27.953Z,94567
2022-12-13T11:34:38.608Z,94573
2022-12-13T11:35:47.263Z,94573
2022-12-13T11:36:56.933Z,94570
2022-12-13T11:38:06.592Z,94563
2022-12-13T11:39:14.230Z,94558
2022-12-13T11:40:22.903Z,94555
2022-12-13T11:41:33.157Z,94553
2022-12-13T11:42:41.296Z,94556
2022-12-13T11:43:50.935Z,94553
2022-12-13T11:44:59.604Z,94556
2022-12-13T11:46:09.309Z,94560
2022-12-13T11:47:18.981Z,94562
2022-12-13T11:48:28.159Z,94557
2022-12-13T11:49:37.313Z,94560
2022-12-13T11:50:46.982Z,94552
2022-12-13T11:51:55.641Z,94556
2022-12-13T11:53:05.306Z,94552
2022-12-13T11:54:13.007Z,94548
2022-12-13T11:55:21.648Z,94553
2022-12-13T11:56:31.310Z,94554
2022-12-13T11:57:40.950Z,94555
2022-12-13T11:59:12.156Z,94559
2022-12-13T12:00:01.951Z,94558
2022-12-13T12:01:10.965Z,94558
2022-12-13T12:02:20.660Z,94553
2022-12-13T12:03:29.378Z,94552
2022-12-13T12:04:38.968Z,94548
2022-12-13T12:05:48.694Z,94552
2022-12-13T12:07:08.403Z,94550
2022-12-13T12:08:34.529Z,94555
2022-12-13T12:09:20.599Z,94557
2022-12-13T12:10:29.265Z,94557
2022-12-13T12:11:38.938Z,94556
2022-12-13T12:12:46.597Z,94556
2022-12-13T12:13:56.281Z,94560
2022-12-13T12:15:15.980Z,94547
2022-12-13T12:16:16.601Z,94548
2022-12-13T12:17:25.225Z,94550
2022-12-13T12:18:35.868Z,94545
2022-12-13T12:19:44.525Z,94539
2022-12-13T12:20:54.199Z,94544
2022-12-13T12:22:13.547Z,94542
2022-12-13T12:23:10.503Z,94544
2022-12-13T12:24:20.160Z,94547
2022-12-13T12:25:28.819Z,94550
2022-12-13T12:26:38.481Z,94547
2022-12-13T12:27:47.156Z,94546
2022-12-13T12:28:55.820Z,94547
2022-12-13T12:30:05.488Z,94548
2022-12-13T12:31:15.153Z,94549
2022-12-13T12:32:24.776Z,94550
2022-12-13T12:33:33.437Z,94547
2022-12-13T12:34:42.121Z,94546
2022-12-13T12:35:50.785Z,94546
2022-12-13T12:37:00.458Z,94547
2022-12-13T12:38:10.128Z,94547
2022-12-13T12:39:19.783Z,94546
2022-12-13T12:40:40.162Z,94549
2022-12-13T12:41:45.038Z,94538
2022-12-13T12:43:13.603Z,94536
2022-12-13T12:44:00.347Z,94533
2022-12-13T12:45:10.621Z,94532
2022-12-13T12:46:20.727Z,94534
2022-12-13T12:48:05.792Z,94535
2022-12-13T12:48:53.656Z,94538
2022-12-13T12:49:50.629Z,94539
2022-12-13T12:50:59.283Z,94540
2022-12-13T12:52:08.958Z,94539
2022-12-13T12:53:16.641Z,94538
2022-12-13T12:54:31.832Z,94544
2022-12-13T12:55:35.986Z,94543
2022-12-13T12:56:44.656Z,94548
2022-12-13T12:57:54.343Z,94547
2022-12-13T12:59:05.004Z,94548
2022-12-13T13:00:14.700Z,94546
2022-12-13T13:01:24.370Z,94545
2022-12-13T13:02:32.067Z,94544
2022-12-13T13:03:39.781Z,94548
2022-12-13T13:04:48.354Z,94549
2022-12-13T13:06:01.833Z,94548
2022-12-13T13:07:22.333Z,94546
2022-12-13T13:08:17.306Z,94547
2022-12-13T13:09:25.972Z,94548
2022-12-13T13:10:35.697Z,94547
2022-12-13T13:11:43.640Z,94547
2022-12-13T13:13:01.927Z,94546
2022-12-13T13:14:05.387Z,94550
2022-12-13T13:15:14.014Z,94551
2022-12-13T13:16:24.729Z,94550
2022-12-13T13:17:34.362Z,94558
2022-12-13T13:18:43.026Z,94556
2022-12-13T13:19:55.365Z,94560
2022-12-13T13:21:03.376Z,94558
2022-12-13T13:22:30.430Z,94556
2022-12-13T13:23:39.260Z,94553
2022-12-13T13:24:34.308Z,94552
2022-12-13T13:26:00.628Z,94553
2022-12-13T13:26:53.638Z,94557
2022-12-13T13:28:02.336Z,94559
2022-12-13T13:29:12.021Z,94563
2022-12-13T13:30:21.698Z,94561
2022-12-13T13:31:31.434Z,94564
2022-12-13T13:32:41.095Z,94561
2022-12-13T13:33:48.814Z,94559
2022-12-13T13:35:00.707Z,94562
2022-12-13T13:36:08.211Z,94566
2022-12-13T13:37:22.509Z,94568
2022-12-13T13:38:28.559Z,94569
2022-12-13T13:39:38.299Z,94568
2022-12-13T13:40:47.962Z,94566
2022-12-13T13:41:57.629Z,94561
2022-12-13T13:43:06.292Z,94561
2022-12-13T13:44:19.594Z,94561
2022-12-13T13:45:26.627Z,94564
2022-12-13T13:46:35.398Z,94562
2022-12-13T13:47:45.023Z,94561
2022-12-13T13:48:53.695Z,94567
2022-12-13T13:50:03.477Z,94567
2022-12-13T13:51:12.145Z,94568
2022-12-13T13:52:27.250Z,94567
2022-12-13T13:53:28.612Z,94571
2022-12-13T13:54:38.092Z,94568
2022-12-13T13:55:46.771Z,94565
2022-12-13T13:56:57.434Z,94564
2022-12-13T13:58:10.340Z,94567
2022-12-13T13:59:14.714Z,94571
2022-12-13T14:00:24.382Z,94569
2022-12-13T14:01:33.103Z,94574
2022-12-13T14:02:42.861Z,94572
2022-12-13T14:03:52.400Z,94569
2022-12-13T14:05:01.047Z,94568
2022-12-13T14:06:09.732Z,94572
2022-12-13T14:07:22.136Z,94577
2022-12-13T14:08:29.063Z,94572
2022-12-13T14:09:38.264Z,94576
2022-12-13T14:10:47.466Z,94578
2022-12-13T14:11:57.159Z,94573
2022-12-13T14:13:04.867Z,94570
2022-12-13T14:14:21.504Z,94574
2022-12-13T14:15:25.173Z,94577
2022-12-13T14:16:34.961Z,94571
2022-12-13T14:17:44.635Z,94574
2022-12-13T14:18:54.303Z,94567
2022-12-13T14:20:04.052Z,94568
2022-12-13T14:21:13.674Z,94570
2022-12-13T14:22:21.355Z,94566
2022-12-13T14:23:31.069Z,94568
2022-12-13T14:24:40.164Z,94565
2022-12-13T14:25:52.012Z,94566
2022-12-13T14:26:59.108Z,94567
2022-12-13T14:28:07.797Z,94567
2022-12-13T14:29:16.473Z,94567
2022-12-13T14:30:27.708Z,94566
2022-12-13T14:31:34.873Z,94570
2022-12-13T14:32:44.472Z,94571
2022-12-13T14:33:53.187Z,94574
2022-12-13T14:35:25.201Z,94572
2022-12-13T14:36:12.507Z,94567
2022-12-13T14:37:21.194Z,94563
2022-12-13T14:38:29.840Z,94568
2022-12-13T14:39:39.525Z,94569
2022-12-13T14:40:47.194Z,94573
2022-12-13T14:41:57.400Z,94571
2022-12-13T14:43:05.568Z,94570
2022-12-13T14:44:16.265Z,94570
2022-12-13T14:45:25.927Z,94574
2022-12-13T14:46:35.622Z,94577
2022-12-13T14:47:45.317Z,94578
2022-12-13T14:48:55.054Z,94578
2022-12-13T14:50:05.706Z,94576
2022-12-13T14:51:15.348Z,94582
2022-12-13T14:52:26.050Z,94574
2022-12-13T14:53:32.734Z,94577